createdAt,value
2018-08-28T00:00:17.871Z,1.8
2018-08-28T00:02:17.651Z,1.8
2018-08-28T00:04:18.434Z,2.6
2018-08-28T00:06:18.487Z,1.7
2018-08-28T00:08:18.240Z,2.3
2018-08-28T00:10:18.500Z,1.5
2018-08-28T00:12:18.257Z,1.7
2018-08-28T00:14:18.033Z,1.8
2018-08-28T00:16:18.112Z,2.1
2018-08-28T00:18:17.948Z,2.7
2018-08-28T00:20:17.710Z,1.6
2018-08-28T00:22:18.508Z,2.1
2018-08-28T00:24:18.296Z,1.8
2018-08-28T00:26:17.809Z,2.4
2018-08-28T00:28:17.596Z,1.7
2018-08-28T00:30:18.382Z,1.9
2018-08-28T00:32:18.152Z,1.6
2018-08-28T00:34:17.956Z,2.5
2018-08-28T00:36:17.977Z,2
2018-08-28T00:38:17.741Z,2.1
2018-08-28T00:40:17.965Z,2
2018-08-28T00:42:18.712Z,2.1
2018-08-28T00:44:18.461Z,1.5
2018-08-28T00:46:18.111Z,1.9
2018-08-28T00:48:17.868Z,2.5
2018-08-28T00:50:17.643Z,2.4
2018-08-28T00:52:18.449Z,2.1
2018-08-28T00:54:19.302Z,2.5
2018-08-28T00:56:17.782Z,2
2018-08-28T00:58:18.570Z,3.1
2018-08-28T01:00:18.336Z,2.3
2018-08-28T01:02:18.107Z,2.9
2018-08-28T01:04:17.884Z,2.1
2018-08-28T01:06:18.615Z,2.9
2018-08-28T01:08:18.375Z,2.5
2018-08-28T01:10:17.620Z,2.4
2018-08-28T01:12:18.390Z,2.1
2018-08-28T01:14:18.141Z,2.3
2018-08-28T01:16:18.652Z,2.9
2018-08-28T01:18:18.490Z,2.2
2018-08-28T01:20:18.340Z,2.2
2018-08-28T01:22:19.107Z,2.4
2018-08-28T01:24:18.866Z,2
2018-08-28T01:26:17.883Z,2.3
2018-08-28T01:28:17.663Z,2.1
2018-08-28T01:30:19.456Z,2.6
2018-08-28T01:32:18.217Z,2.6
2018-08-28T01:34:17.995Z,1.9
2018-08-28T01:36:18.468Z,2.2
2018-08-28T01:38:18.248Z,2
2018-08-28T01:40:18.591Z,2.4
2018-08-28T01:42:19.375Z,2.8
2018-08-28T01:44:18.145Z,2.4
2018-08-28T01:46:17.674Z,2.7
2018-08-28T01:48:18.422Z,2.5
2018-08-28T01:50:18.193Z,2.1
2018-08-28T01:52:17.972Z,1.9
2018-08-28T01:54:17.719Z,2.6
2018-08-28T01:56:17.810Z,2.5
2018-08-28T01:58:18.586Z,2.1
2018-08-28T02:00:18.359Z,2.9
2018-08-28T02:02:18.125Z,3
2018-08-28T02:04:17.881Z,2.2
2018-08-28T02:06:18.404Z,2.3
2018-08-28T02:08:18.222Z,3.4
2018-08-28T02:10:18.502Z,2.7
2018-08-28T02:12:19.275Z,2.2
2018-08-28T02:14:18.044Z,2.2
2018-08-28T02:16:18.520Z,2.7
2018-08-28T02:18:18.380Z,2.2
2018-08-28T02:20:18.157Z,2.7
2018-08-28T02:22:17.920Z,2.5
2018-08-28T02:24:17.735Z,2
2018-08-28T02:26:17.770Z,2.3
2018-08-28T02:28:17.521Z,2.9
2018-08-28T02:30:18.311Z,2.6
2018-08-28T02:32:19.083Z,2.8
2018-08-28T02:34:17.843Z,2.9
2018-08-28T02:36:18.452Z,2.3
2018-08-28T02:38:19.218Z,2.5
2018-08-28T02:40:19.493Z,2.7
2018-08-28T02:42:19.250Z,2.4
2018-08-28T02:44:19.022Z,2
2018-08-28T02:46:17.556Z,2.5
2018-08-28T02:48:19.350Z,2.7
2018-08-28T02:50:19.141Z,2.5
2018-08-28T02:52:17.914Z,2.7
2018-08-28T02:54:17.673Z,3
2018-08-28T02:56:18.254Z,2.3
2018-08-28T02:58:18.242Z,3.5
2018-08-28T03:00:19.007Z,2
2018-08-28T03:02:18.747Z,2.9
2018-08-28T03:04:18.542Z,3.3
2018-08-28T03:06:19.009Z,2.6
2018-08-28T03:08:17.756Z,2.8
2018-08-28T03:10:19.086Z,2.4
2018-08-28T03:12:17.874Z,3.1
2018-08-28T03:14:18.682Z,2.3
2018-08-28T03:16:19.212Z,2.7
2018-08-28T03:18:19.121Z,2.5
2018-08-28T03:20:18.886Z,2.6
2018-08-28T03:22:18.652Z,2.6
2018-08-28T03:24:19.416Z,3
2018-08-28T03:26:19.442Z,2.4
2018-08-28T03:28:19.265Z,2.4
2018-08-28T03:30:18.090Z,2.8
2018-08-28T03:32:18.867Z,2.6
2018-08-28T03:34:17.722Z,2.8
2018-08-28T03:36:19.199Z,2.6
2018-08-28T03:38:17.973Z,2.3
2018-08-28T03:40:18.201Z,2.6
2018-08-28T03:42:18.983Z,2.2
2018-08-28T03:44:18.772Z,2.6
2018-08-28T03:46:17.793Z,2.3
2018-08-28T03:48:18.589Z,2
2018-08-28T03:50:19.376Z,2.2
2018-08-28T03:52:19.161Z,2.3
2018-08-28T03:54:18.929Z,2
2018-08-28T03:56:18.435Z,2.4
2018-08-28T03:58:19.187Z,2.8
2018-08-28T04:00:17.942Z,1.9
2018-08-28T04:02:18.723Z,2.1
2018-08-28T04:04:19.473Z,2.5
2018-08-28T04:06:17.851Z,1.7
2018-08-28T04:08:18.596Z,2.5
2018-08-28T04:10:18.859Z,2.4
2018-08-28T04:12:18.611Z,2.5
2018-08-28T04:14:18.378Z,3.2
2018-08-28T04:16:19.209Z,2.3
2018-08-28T04:18:19.082Z,3.4
2018-08-28T04:20:18.877Z,1.3
2018-08-28T04:22:17.645Z,2
2018-08-28T04:24:18.403Z,2.5
2018-08-28T04:26:18.780Z,2.2
2018-08-28T04:28:18.572Z,2.7
2018-08-28T04:30:19.332Z,1.8
2018-08-28T04:32:19.218Z,2.5
2018-08-28T04:34:18.998Z,2.4
2018-08-28T04:36:19.461Z,2
2018-08-28T04:38:19.262Z,1.8
2018-08-28T04:40:17.525Z,2.6
2018-08-28T04:42:19.291Z,1.9
2018-08-28T04:44:19.083Z,2.6
2018-08-28T04:46:17.582Z,2.4
2018-08-28T04:48:18.385Z,2
2018-08-28T04:50:18.129Z,2.1
2018-08-28T04:52:17.910Z,2.5
2018-08-28T04:54:18.787Z,1.9
2018-08-28T04:56:19.070Z,1.8
2018-08-28T04:58:18.833Z,1.7
2018-08-28T05:00:17.615Z,3
2018-08-28T05:02:18.367Z,1.9
2018-08-28T05:04:19.153Z,2.4
2018-08-28T05:06:17.686Z,2.2
2018-08-28T05:08:19.461Z,2
2018-08-28T05:10:17.729Z,2.5
2018-08-28T05:12:18.504Z,2.5
2018-08-28T05:14:19.251Z,2.5
2018-08-28T05:16:18.785Z,2.6
2018-08-28T05:18:18.606Z,2.5
2018-08-28T05:20:18.389Z,2.3
2018-08-28T05:22:19.174Z,2.3
2018-08-28T05:24:18.955Z,1.4
2018-08-28T05:26:18.966Z,2
2018-08-28T05:28:18.744Z,1.8
2018-08-28T05:30:18.666Z,2.2
2018-08-28T05:32:18.495Z,2.2
2018-08-28T05:34:18.251Z,2.6
2018-08-28T05:36:17.777Z,2
2018-08-28T05:38:18.531Z,1.7
2018-08-28T05:40:17.894Z,1.7
2018-08-28T05:42:18.646Z,1.8
2018-08-28T05:44:19.425Z,1.7
2018-08-28T05:46:19.003Z,2.5
2018-08-28T05:48:18.790Z,2.2
2018-08-28T05:50:18.562Z,2.1
2018-08-28T05:52:18.341Z,2.1
2018-08-28T05:54:19.107Z,2.3
2018-08-28T05:56:18.668Z,2.5
2018-08-28T05:58:17.693Z,1.8
2018-08-28T06:00:18.473Z,1.8
2018-08-28T06:02:18.237Z,1.8
2018-08-28T06:04:17.995Z,2.1
2018-08-28T06:06:18.514Z,2.1
2018-08-28T06:08:19.290Z,2.1
2018-08-28T06:10:18.629Z,2.9
2018-08-28T06:12:18.418Z,2.7
2018-08-28T06:14:19.217Z,2.2
2018-08-28T06:16:19.301Z,1.6
2018-08-28T06:18:19.141Z,2
2018-08-28T06:20:17.905Z,2.2
2018-08-28T06:22:18.673Z,2.3
2018-08-28T06:24:19.462Z,2.3
2018-08-28T06:26:18.694Z,2.5
2018-08-28T06:28:18.536Z,2.5
2018-08-28T06:30:19.390Z,2.7
2018-08-28T06:32:19.130Z,2.1
2018-08-28T06:34:18.878Z,2.9
2018-08-28T06:36:17.920Z,2
2018-08-28T06:38:17.683Z,2.2
2018-08-28T06:40:17.919Z,2.8
2018-08-28T06:42:18.766Z,1.9
2018-08-28T06:44:18.556Z,1.8
2018-08-28T06:46:18.066Z,1.9
2018-08-28T06:48:17.834Z,2.3
2018-08-28T06:50:17.594Z,3.2
2018-08-28T06:52:18.372Z,2
2018-08-28T06:54:19.118Z,2.8
2018-08-28T06:56:19.185Z,2.2
2018-08-28T06:58:18.933Z,1.9
2018-08-28T07:00:18.713Z,2
2018-08-28T07:02:19.526Z,2
2018-08-28T07:04:18.320Z,2.5
2018-08-28T07:06:17.812Z,2.2
2018-08-28T07:08:17.600Z,2.8
2018-08-28T07:10:17.906Z,2.4
2018-08-28T07:12:17.907Z,2.3
2018-08-28T07:14:18.691Z,2.5
2018-08-28T07:16:18.746Z,1.9
2018-08-28T07:18:17.592Z,2.6
2018-08-28T07:20:18.375Z,3.1
2018-08-28T07:22:19.138Z,1.8
2018-08-28T07:24:18.938Z,2
2018-08-28T07:26:19.427Z,2.1
2018-08-28T07:28:18.220Z,1.7
2018-08-28T07:30:17.986Z,2.2
2018-08-28T07:32:18.743Z,2.3
2018-08-28T07:34:19.523Z,2.3
2018-08-28T07:36:19.103Z,2.1
2018-08-28T07:38:17.860Z,1.4
2018-08-28T07:40:19.269Z,2
2018-08-28T07:42:19.042Z,1.8
2018-08-28T07:44:18.848Z,2
2018-08-28T07:46:18.905Z,2
2018-08-28T07:48:17.741Z,2.1
2018-08-28T07:50:17.551Z,2.4
2018-08-28T07:52:18.357Z,2.2
2018-08-28T07:54:18.096Z,1.9
2018-08-28T07:56:19.151Z,2.3
2018-08-28T07:58:18.928Z,1.9
2018-08-28T08:00:17.712Z,1.7
2018-08-28T08:02:17.723Z,2.2
2018-08-28T08:04:18.503Z,1.5
2018-08-28T08:06:19.046Z,1.5
2018-08-28T08:08:18.821Z,1.4
2018-08-28T08:10:19.156Z,1.2
2018-08-28T08:12:17.949Z,1.7
2018-08-28T08:14:17.733Z,2.3
2018-08-28T08:16:17.959Z,1.3
2018-08-28T08:18:19.181Z,1.5
2018-08-28T08:20:18.954Z,2.2
2018-08-28T08:22:17.836Z,2.4
2018-08-28T08:24:18.911Z,1.6
2018-08-28T08:26:18.441Z,1.9
2018-08-28T08:28:19.286Z,2
2018-08-28T08:30:18.254Z,2.1
2018-08-28T08:32:18.043Z,1.7
2018-08-28T08:34:17.836Z,1.6
2018-08-28T08:36:18.395Z,1.9
2018-08-28T08:38:19.199Z,1.5
2018-08-28T08:40:18.475Z,1.1
2018-08-28T08:42:18.217Z,1.5
2018-08-28T08:44:17.996Z,1.8
2018-08-28T08:46:19.115Z,1.8
2018-08-28T08:48:17.892Z,1.6
2018-08-28T08:50:17.686Z,1.1
2018-08-28T08:52:18.436Z,1.5
2018-08-28T08:54:18.206Z,1.2
2018-08-28T08:56:18.045Z,1.6
2018-08-28T08:58:18.802Z,2
2018-08-28T09:00:17.544Z,2
2018-08-28T09:02:18.335Z,2.1
2018-08-28T09:04:18.155Z,1.7
2018-08-28T09:06:19.171Z,1.5
2018-08-28T09:08:18.993Z,1.7
2018-08-28T09:10:18.245Z,1.7
2018-08-28T09:12:19.022Z,1.4
2018-08-28T09:14:17.803Z,2
2018-08-28T09:16:18.576Z,1.2
2018-08-28T09:18:18.431Z,1.6
2018-08-28T09:20:18.215Z,1.6
2018-08-28T09:22:17.994Z,2
2018-08-28T09:24:17.803Z,1.1
2018-08-28T09:26:18.264Z,1.3
2018-08-28T09:28:18.033Z,1.8
2018-08-28T09:30:17.818Z,1.7
2018-08-28T09:32:17.649Z,1.9
2018-08-28T09:34:17.569Z,1.6
2018-08-28T09:36:17.679Z,1.5
2018-08-28T09:38:18.469Z,1.6
2018-08-28T09:40:17.856Z,2
2018-08-28T09:42:17.604Z,1.1
2018-08-28T09:44:18.367Z,1.2
2018-08-28T09:46:18.007Z,1.5
2018-08-28T09:48:17.908Z,2
2018-08-28T09:50:18.216Z,1.6
2018-08-28T09:52:18.138Z,0.9
2018-08-28T09:54:17.915Z,1.5
2018-08-28T09:56:17.975Z,1.2
2018-08-28T09:58:17.733Z,1.2
2018-08-28T10:00:18.517Z,1
2018-08-28T10:02:18.315Z,1.7
2018-08-28T10:04:18.112Z,1.2
2018-08-28T10:06:18.174Z,2
2018-08-28T10:08:17.946Z,1.3
2018-08-28T10:10:18.181Z,1.3
2018-08-28T10:12:17.969Z,1.5
2018-08-28T10:14:17.752Z,1.3
2018-08-28T10:16:17.896Z,1.8
2018-08-28T10:18:17.756Z,1.6
2018-08-28T10:20:17.565Z,1.6
2018-08-28T10:22:18.364Z,1.7
2018-08-28T10:24:18.150Z,1.9
2018-08-28T10:26:17.630Z,1.5
2018-08-28T10:28:18.394Z,2
2018-08-28T10:30:18.269Z,1.3
2018-08-28T10:32:18.070Z,2
2018-08-28T10:34:17.829Z,1.2
2018-08-28T10:36:17.852Z,1.2
2018-08-28T10:38:17.670Z,1.4
2018-08-28T10:40:18.145Z,1.4
2018-08-28T10:42:17.898Z,1.1
2018-08-28T10:44:17.668Z,1.5
2018-08-28T10:46:17.705Z,1.3
2018-08-28T10:48:17.576Z,1.2
2018-08-28T10:50:18.352Z,1.5
2018-08-28T10:52:18.156Z,1.7
2018-08-28T10:54:17.966Z,1.1
2018-08-28T10:56:18.076Z,1.7
2018-08-28T10:58:17.858Z,1.8
2018-08-28T11:00:17.651Z,2
2018-08-28T11:02:18.426Z,2.2
2018-08-28T11:04:18.257Z,1.9
2018-08-28T11:06:18.302Z,1.4
2018-08-28T11:08:18.113Z,1.7
2018-08-28T11:10:18.377Z,2.4
2018-08-28T11:12:18.157Z,1.3
2018-08-28T11:14:17.948Z,1.3
2018-08-28T11:16:18.083Z,1.8
2018-08-28T11:18:17.940Z,1.1
2018-08-28T11:20:17.838Z,1.5
2018-08-28T11:22:17.626Z,2
2018-08-28T11:24:18.458Z,2.2
2018-08-28T11:26:18.032Z,1.7
2018-08-28T11:28:17.813Z,2
2018-08-28T11:30:17.633Z,1.1
2018-08-28T11:32:18.384Z,1.9
2018-08-28T11:34:18.194Z,1.9
2018-08-28T11:36:17.760Z,1.4
2018-08-28T11:38:17.602Z,2.1
2018-08-28T11:40:17.927Z,2.1
2018-08-28T11:42:17.734Z,2
2018-08-28T11:44:18.532Z,2
2018-08-28T11:46:18.122Z,1.5
2018-08-28T11:48:17.918Z,2.3
2018-08-28T11:50:17.724Z,1.7
2018-08-28T11:52:18.531Z,1.9
2018-08-28T11:54:18.423Z,2.5
2018-08-28T11:56:18.521Z,2.3
2018-08-28T11:58:18.337Z,1.9
2018-08-28T12:00:18.159Z,2.4
2018-08-28T12:02:17.948Z,2.2
2018-08-28T12:04:17.727Z,1.5
2018-08-28T12:06:17.628Z,1.6
2018-08-28T12:08:18.456Z,1.4
2018-08-28T12:10:17.707Z,2.9
2018-08-28T12:12:18.516Z,2
2018-08-28T12:14:18.297Z,2.3
2018-08-28T12:16:17.823Z,1.4
2018-08-28T12:18:17.687Z,1.4
2018-08-28T12:20:18.480Z,2
2018-08-28T12:22:18.305Z,2.5
2018-08-28T12:24:18.090Z,1.8
2018-08-28T12:26:17.586Z,2.2
2018-08-28T12:28:18.360Z,1.4
2018-08-28T12:30:18.151Z,2.9
2018-08-28T12:32:17.954Z,2.7
2018-08-28T12:34:17.738Z,2.2
2018-08-28T12:36:17.859Z,1.7
2018-08-28T12:38:17.648Z,2.9
2018-08-28T12:40:17.919Z,1.3
2018-08-28T12:42:17.697Z,2
2018-08-28T12:44:18.461Z,2.1
2018-08-28T12:46:18.059Z,2.4
2018-08-28T12:48:17.850Z,1.9
2018-08-28T12:50:17.739Z,2.6
2018-08-28T12:52:18.519Z,2.1
2018-08-28T12:54:18.273Z,2.4
2018-08-28T12:56:18.056Z,2.5
2018-08-28T12:58:17.852Z,2.1
2018-08-28T13:00:17.673Z,2
2018-08-28T13:02:18.641Z,2.3
2018-08-28T13:04:18.474Z,2
2018-08-28T13:06:17.975Z,1.8
2018-08-28T13:08:17.758Z,1.9
2018-08-28T13:10:17.978Z,1.5
2018-08-28T13:12:17.731Z,2.3
2018-08-28T13:14:18.490Z,1.9
2018-08-28T13:16:17.934Z,2.2
2018-08-28T13:18:17.754Z,1.2
2018-08-28T13:20:17.597Z,1.4
2018-08-28T13:22:18.355Z,2.3
2018-08-28T13:24:18.095Z,2
2018-08-28T13:26:18.375Z,1.7
2018-08-28T13:28:18.128Z,1.6
2018-08-28T13:30:17.888Z,2.1
2018-08-28T13:32:17.655Z,1.8
2018-08-28T13:34:18.396Z,1.2
2018-08-28T13:36:17.828Z,1.9
2018-08-28T13:38:17.575Z,1.9
2018-08-28T13:40:17.797Z,1.7
2018-08-28T13:42:17.765Z,1.4
2018-08-28T13:44:17.537Z,1.7
2018-08-28T13:46:17.955Z,1.8
2018-08-28T13:48:17.738Z,2
2018-08-28T13:50:18.513Z,1.4
2018-08-28T13:52:18.274Z,1.4
2018-08-28T13:54:18.186Z,1.5
2018-08-28T13:56:17.826Z,2.4
2018-08-28T13:58:17.574Z,2
2018-08-28T14:00:18.335Z,1.6
2018-08-28T14:02:18.074Z,1.9
2018-08-28T14:04:17.852Z,2
2018-08-28T14:06:18.304Z,1.4
2018-08-28T14:08:18.067Z,2
2018-08-28T14:10:18.327Z,2.3
2018-08-28T14:12:18.128Z,1.4
2018-08-28T14:14:17.889Z,2.5
2018-08-28T14:16:18.072Z,1.9
2018-08-28T14:18:17.919Z,1.9
2018-08-28T14:20:17.735Z,2.9
2018-08-28T14:22:18.592Z,2.3
2018-08-28T14:24:18.494Z,1.5
2018-08-28T14:26:17.952Z,1.9
2018-08-28T14:28:17.721Z,1.9
2018-08-28T14:30:18.520Z,2
2018-08-28T14:32:18.295Z,2.4
2018-08-28T14:34:18.079Z,1.4
2018-08-28T14:36:17.590Z,1.7
2018-08-28T14:38:18.352Z,1.7
2018-08-28T14:40:17.590Z,1.8
2018-08-28T14:42:18.400Z,2.3
2018-08-28T14:44:18.190Z,1.7
2018-08-28T14:46:17.672Z,2
2018-08-28T14:48:18.468Z,2
2018-08-28T14:50:18.583Z,1.7
2018-08-28T14:52:17.617Z,2.1
2018-08-28T14:54:18.432Z,1.7
2018-08-28T14:56:17.892Z,2.3
2018-08-28T14:58:17.664Z,2.1
2018-08-28T15:00:18.460Z,2.2
2018-08-28T15:02:17.895Z,2.2
2018-08-28T15:04:17.660Z,1.5
2018-08-28T15:06:17.682Z,2.1
2018-08-28T15:08:18.477Z,2.9
2018-08-28T15:10:17.739Z,2.5
2018-08-28T15:12:18.515Z,2.6
2018-08-28T15:14:18.290Z,2.7
2018-08-28T15:16:18.374Z,2.5
2018-08-28T15:18:18.204Z,1.6
2018-08-28T15:20:17.982Z,2.2
2018-08-28T15:22:17.762Z,3.6
2018-08-28T15:24:18.540Z,2.9
2018-08-28T15:26:18.515Z,2.5
2018-08-28T15:28:18.285Z,2.5
2018-08-28T15:30:18.053Z,2.7
2018-08-28T15:32:17.799Z,2.3
2018-08-28T15:34:17.561Z,2.4
2018-08-28T15:36:18.030Z,2.3
2018-08-28T15:38:17.789Z,2.1
2018-08-28T15:40:17.966Z,2.5
2018-08-28T15:42:17.707Z,3
2018-08-28T15:44:18.445Z,2.7
2018-08-28T15:46:17.912Z,2.2
2018-08-28T15:48:17.665Z,2.2
2018-08-28T15:50:18.432Z,2.1
2018-08-28T15:52:18.198Z,2.4
2018-08-28T15:54:17.952Z,2.1
2018-08-28T15:56:17.687Z,3.2
2018-08-28T15:58:18.437Z,3.3
2018-08-28T16:00:18.199Z,2.6
2018-08-28T16:02:17.963Z,2.2
2018-08-28T16:04:17.708Z,1.9
2018-08-28T16:06:18.143Z,2.9
2018-08-28T16:08:17.909Z,2.6
2018-08-28T16:10:18.109Z,3.2
2018-08-28T16:12:17.882Z,2.2
2018-08-28T16:14:17.625Z,3.7
2018-08-28T16:16:18.061Z,4.6
2018-08-28T16:18:17.893Z,3.4
2018-08-28T16:20:17.654Z,3.4
2018-08-28T16:22:18.398Z,3.6
2018-08-28T16:24:18.189Z,2.7
2018-08-28T16:26:17.690Z,1.9
2018-08-28T16:28:18.566Z,2.5
2018-08-28T16:30:18.454Z,2.8
2018-08-28T16:32:18.206Z,2.6
2018-08-28T16:34:17.966Z,2.4
2018-08-28T16:36:18.027Z,2.5
2018-08-28T16:38:17.766Z,2.5
2018-08-28T16:40:17.985Z,2.5
2018-08-28T16:42:17.742Z,2.8
2018-08-28T16:44:18.527Z,2.3
2018-08-28T16:46:18.046Z,3.1
2018-08-28T16:48:17.814Z,3
2018-08-28T16:50:17.736Z,3.9
2018-08-28T16:52:17.683Z,4.4
2018-08-28T16:54:18.425Z,2.9
2018-08-28T16:56:17.899Z,2.4
2018-08-28T16:58:17.677Z,4.4
2018-08-28T17:00:18.425Z,10.7
2018-08-28T17:02:18.171Z,4.2
2018-08-28T17:04:17.946Z,4.7
2018-08-28T17:06:18.382Z,4.3
2018-08-28T17:08:18.131Z,5.1
2018-08-28T17:10:18.350Z,4.1
2018-08-28T17:12:18.197Z,3.4
2018-08-28T17:14:18.156Z,4
2018-08-28T17:16:18.471Z,3.8
2018-08-28T17:18:18.272Z,2.8
2018-08-28T17:20:18.025Z,3.8
2018-08-28T17:22:17.779Z,2.8
2018-08-28T17:24:17.523Z,3
2018-08-28T17:26:18.494Z,3.2
2018-08-28T17:28:18.237Z,2.9
2018-08-28T17:30:17.996Z,3.1
2018-08-28T17:32:17.772Z,3.2
2018-08-28T17:34:17.519Z,2.4
2018-08-28T17:36:17.993Z,2.6
2018-08-28T17:38:17.789Z,2.8
2018-08-28T17:40:18.019Z,3.1
2018-08-28T17:42:17.766Z,3
2018-08-28T17:44:17.548Z,3.6
2018-08-28T17:46:17.998Z,3.2
2018-08-28T17:48:17.783Z,2.8
2018-08-28T17:50:17.542Z,3.6
2018-08-28T17:52:18.284Z,2
2018-08-28T17:54:18.039Z,4.1
2018-08-28T17:56:17.778Z,4.3
2018-08-28T17:58:17.528Z,2.8
2018-08-28T18:00:18.298Z,3.1
2018-08-28T18:02:18.063Z,3
2018-08-28T18:04:17.846Z,3.5
2018-08-28T18:06:17.854Z,3
2018-08-28T18:08:17.600Z,2.8
2018-08-28T18:10:17.826Z,3.5
2018-08-28T18:12:17.577Z,3.1
2018-08-28T18:14:18.330Z,2.6
2018-08-28T18:16:17.892Z,2.4
2018-08-28T18:18:17.783Z,3.3
2018-08-28T18:20:17.583Z,3.3
2018-08-28T18:22:18.341Z,3.1
2018-08-28T18:24:18.145Z,3.1
2018-08-28T18:26:18.163Z,3
2018-08-28T18:28:17.907Z,3.5
2018-08-28T18:30:17.669Z,2.6
2018-08-28T18:32:18.435Z,2.3
2018-08-28T18:34:18.198Z,3.2
2018-08-28T18:36:17.674Z,3.5
2018-08-28T18:38:18.422Z,3.2
2018-08-28T18:40:17.611Z,3.7
2018-08-28T18:42:18.345Z,3.5
2018-08-28T18:44:18.107Z,3.3
2018-08-28T18:46:17.539Z,2.8
2018-08-28T18:48:18.280Z,4.4
2018-08-28T18:50:18.055Z,4.5
2018-08-28T18:52:17.787Z,5.4
2018-08-28T18:54:17.524Z,4.5
2018-08-28T18:56:18.192Z,3.7
2018-08-28T18:58:18.162Z,3.7
2018-08-28T19:00:17.917Z,3.6
2018-08-28T19:02:17.656Z,5.4
2018-08-28T19:04:18.391Z,5.4
2018-08-28T19:06:17.847Z,6.2
2018-08-28T19:08:17.579Z,5.1
2018-08-28T19:10:17.834Z,5.3
2018-08-28T19:12:17.589Z,5
2018-08-28T19:14:18.329Z,5.4
2018-08-28T19:16:17.757Z,4.4
2018-08-28T19:18:17.588Z,4.8
2018-08-28T19:20:18.377Z,5.1
2018-08-28T19:22:18.220Z,6.9
2018-08-28T19:24:17.990Z,12.8
2018-08-28T19:26:17.965Z,7.8
2018-08-28T19:28:17.711Z,5.6
2018-08-28T19:30:18.468Z,6
2018-08-28T19:32:18.203Z,5.8
2018-08-28T19:34:17.946Z,4.5
2018-08-28T19:36:17.954Z,4.8
2018-08-28T19:38:17.744Z,4.2
2018-08-28T19:40:17.969Z,4.9
2018-08-28T19:42:17.693Z,3.3
2018-08-28T19:44:18.517Z,5.2
2018-08-28T19:46:17.836Z,4.3
2018-08-28T19:48:18.568Z,4.4
2018-08-28T19:50:18.303Z,3.8
2018-08-28T19:52:18.044Z,4.8
2018-08-28T19:54:17.811Z,5.1
2018-08-28T19:56:18.246Z,2.8
2018-08-28T19:58:18.090Z,4.8
2018-08-28T20:00:18.088Z,4.7
2018-08-28T20:02:17.826Z,4.4
2018-08-28T20:04:17.583Z,5.1
2018-08-28T20:06:18.025Z,6.3
2018-08-28T20:08:18.757Z,5.7
2018-08-28T20:10:17.984Z,7.2
2018-08-28T20:12:18.732Z,7
2018-08-28T20:14:18.496Z,5.2
2018-08-28T20:16:18.561Z,8.1
2018-08-28T20:18:18.355Z,6.7
2018-08-28T20:20:19.091Z,7.6
2018-08-28T20:22:17.832Z,6.8
2018-08-28T20:24:18.564Z,7.4
2018-08-28T20:26:17.527Z,5.4
2018-08-28T20:28:19.277Z,6.2
2018-08-28T20:30:19.023Z,5.4
2018-08-28T20:32:17.765Z,4.9
2018-08-28T20:34:17.525Z,4.7
2018-08-28T20:36:17.957Z,4.8
2018-08-28T20:38:17.680Z,5.3
2018-08-28T20:40:18.872Z,5.3
2018-08-28T20:42:18.629Z,4.7
2018-08-28T20:44:18.353Z,4.8
2018-08-28T20:46:19.311Z,5
2018-08-28T20:48:18.037Z,3.9
2018-08-28T20:50:18.804Z,5.2
2018-08-28T20:52:18.570Z,4.6
2018-08-28T20:54:19.305Z,4.3
2018-08-28T20:56:17.745Z,4.5
2018-08-28T20:58:18.502Z,5.2
2018-08-28T21:00:19.242Z,5.3
2018-08-28T21:02:18.972Z,5
2018-08-28T21:04:18.723Z,5.2
2018-08-28T21:06:18.240Z,4.2
2018-08-28T21:08:19.030Z,5.1
2018-08-28T21:10:19.205Z,4.3
2018-08-28T21:12:18.937Z,5.4
2018-08-28T21:14:18.699Z,5.2
2018-08-28T21:16:18.675Z,4.4
2018-08-28T21:18:19.478Z,5.4
2018-08-28T21:20:19.249Z,5.7
2018-08-28T21:22:19.014Z,4.3
2018-08-28T21:24:18.741Z,4.7
2018-08-28T21:26:19.137Z,5.9
2018-08-28T21:28:17.889Z,5.3
2018-08-28T21:30:18.631Z,4.6
2018-08-28T21:32:19.367Z,5.1
2018-08-28T21:34:19.140Z,4.8
2018-08-28T21:36:18.556Z,4.8
2018-08-28T21:38:19.294Z,4.8
2018-08-28T21:40:19.460Z,5.2
2018-08-28T21:42:18.235Z,4.5
2018-08-28T21:44:19.154Z,4.8
2018-08-28T21:46:18.630Z,4.5
2018-08-28T21:48:19.448Z,4.9
2018-08-28T21:50:19.353Z,5.2
2018-08-28T21:52:19.102Z,5.9
2018-08-28T21:54:17.824Z,4.9
2018-08-28T21:56:19.229Z,5.6
2018-08-28T21:58:18.006Z,4.5
2018-08-28T22:00:18.770Z,5.9
2018-08-28T22:02:18.497Z,5
2018-08-28T22:04:19.259Z,5.2
2018-08-28T22:06:18.220Z,4.4
2018-08-28T22:08:18.953Z,4.3
2018-08-28T22:10:19.147Z,4.6
2018-08-28T22:12:18.883Z,4.3
2018-08-28T22:14:18.617Z,4.6
2018-08-28T22:16:19.201Z,5.2
2018-08-28T22:18:19.034Z,3.7
2018-08-28T22:20:17.808Z,5.2
2018-08-28T22:22:18.527Z,3.7
2018-08-28T22:24:19.257Z,4
2018-08-28T22:26:18.868Z,4
2018-08-28T22:28:18.595Z,4.6
2018-08-28T22:30:19.340Z,4.1
2018-08-28T22:32:19.119Z,4.4
2018-08-28T22:34:18.840Z,4.1
2018-08-28T22:36:19.255Z,4.1
2018-08-28T22:38:19.010Z,4.6
2018-08-28T22:40:19.220Z,4.1
2018-08-28T22:42:18.943Z,3.3
2018-08-28T22:44:18.688Z,4.1
2018-08-28T22:46:19.093Z,4.3
2018-08-28T22:48:18.858Z,4.1
2018-08-28T22:50:18.570Z,4.2
2018-08-28T22:52:19.290Z,4
2018-08-28T22:54:19.039Z,4.3
2018-08-28T22:56:19.100Z,3.5
2018-08-28T22:58:18.833Z,4.4
2018-08-28T23:00:18.609Z,4.3
2018-08-28T23:02:19.331Z,4.7
2018-08-28T23:04:19.094Z,4.5
2018-08-28T23:06:19.067Z,3.8
2018-08-28T23:08:18.796Z,4
2018-08-28T23:10:18.970Z,4.4
2018-08-28T23:12:18.755Z,3.9
2018-08-28T23:14:18.563Z,4.3
2018-08-28T23:16:19.019Z,4.5
2018-08-28T23:18:18.839Z,3.1
2018-08-28T23:20:18.575Z,4.1
2018-08-28T23:22:19.296Z,3.4
2018-08-28T23:24:19.031Z,3.2
2018-08-28T23:26:17.498Z,3.2
2018-08-28T23:28:19.214Z,3.9
2018-08-28T23:30:18.997Z,4.2
2018-08-28T23:32:18.727Z,2.7
2018-08-28T23:34:19.464Z,3.8
2018-08-28T23:36:18.935Z,4.5
2018-08-28T23:38:18.663Z,4
2018-08-28T23:40:18.887Z,3.4
2018-08-28T23:42:18.648Z,4.5
2018-08-28T23:44:19.378Z,3.5
2018-08-28T23:46:17.819Z,3.2
2018-08-28T23:48:18.542Z,3.5
2018-08-28T23:50:19.309Z,4.1
2018-08-28T23:52:19.074Z,3.5
2018-08-28T23:54:18.800Z,3.6
2018-08-28T23:56:19.177Z,3.2
2018-08-28T23:58:18.925Z,3.4
